createdAt,value
2019-06-15T00:00:31.134Z,20.53
2019-06-15T00:02:59.861Z,20.63
2019-06-15T00:05:28.671Z,18.67
2019-06-15T00:07:57.314Z,20.00
2019-06-15T00:10:28.971Z,18.73
2019-06-15T00:12:57.676Z,19.90
2019-06-15T00:15:26.358Z,19.60
2019-06-15T00:17:55.084Z,18.60
2019-06-15T00:20:23.796Z,19.97
2019-06-15T00:22:53.577Z,19.60
2019-06-15T00:25:22.242Z,20.13
2019-06-15T00:27:50.876Z,20.83
2019-06-15T00:30:20.687Z,18.50
2019-06-15T00:32:49.386Z,20.27
2019-06-15T00:35:18.179Z,18.00
2019-06-15T00:37:47.943Z,19.73
2019-06-15T00:40:16.570Z,19.93
2019-06-15T00:42:48.727Z,23.80
2019-06-15T00:45:17.319Z,20.80
2019-06-15T00:47:45.988Z,22.03
2019-06-15T00:50:14.749Z,18.97
2019-06-15T00:52:43.535Z,18.47
2019-06-15T00:55:12.259Z,19.83
2019-06-15T00:57:40.957Z,19.87
2019-06-15T01:00:10.952Z,19.47
2019-06-15T01:02:39.642Z,20.13
2019-06-15T01:05:08.746Z,20.50
2019-06-15T01:07:37.500Z,19.03
2019-06-15T01:10:07.638Z,19.77
2019-06-15T01:12:36.482Z,20.57
2019-06-15T01:15:05.696Z,18.80
2019-06-15T01:17:34.656Z,20.70
2019-06-15T01:20:03.920Z,22.60
2019-06-15T01:29:20.339Z,21.67
2019-06-15T01:31:49.151Z,21.10
2019-06-15T01:34:27.296Z,21.57
2019-06-15T01:37:02.587Z,21.27
2019-06-15T01:42:41.847Z,20.00
2019-06-15T01:45:32.487Z,19.73
2019-06-15T01:48:01.242Z,19.83
2019-06-15T01:56:33.277Z,20.20
2019-06-15T01:59:02.184Z,18.10
2019-06-15T02:01:31.883Z,17.63
2019-06-15T02:04:00.973Z,20.03
2019-06-15T02:06:30.007Z,17.60
2019-06-15T02:08:59.810Z,17.90
2019-06-15T02:11:28.862Z,18.60
2019-06-15T02:13:57.531Z,26.30
2019-06-15T02:16:26.738Z,20.47
2019-06-15T02:20:20.202Z,20.57
2019-06-15T02:22:12.635Z,20.07
2019-06-15T02:24:43.797Z,22.03
2019-06-15T02:27:20.482Z,19.97
2019-06-15T02:29:49.185Z,20.70
2019-06-15T02:32:18.044Z,22.57
2019-06-15T02:34:47.316Z,22.03
2019-06-15T02:37:16.446Z,20.97
2019-06-15T02:39:45.523Z,21.93
2019-06-15T02:42:14.669Z,22.37
2019-06-15T02:44:43.438Z,24.23
2019-06-15T02:47:12.100Z,22.80
2019-06-15T02:49:40.761Z,22.80
2019-06-15T02:52:10.014Z,20.83
2019-06-15T02:54:38.681Z,22.40
2019-06-15T02:57:07.508Z,22.43
2019-06-15T02:59:36.149Z,23.37
2019-06-15T03:02:04.846Z,21.43
2019-06-15T03:04:33.520Z,22.23
2019-06-15T03:07:02.498Z,22.67
2019-06-15T03:09:31.429Z,25.87
2019-06-15T03:12:00.451Z,22.80
2019-06-15T03:14:32.142Z,22.90
2019-06-15T03:17:00.974Z,23.60
2019-06-15T03:19:29.641Z,23.43
2019-06-15T03:21:58.619Z,22.10
2019-06-15T03:24:27.229Z,22.50
2019-06-15T03:26:57.048Z,22.03
2019-06-15T03:29:25.785Z,22.97
2019-06-15T03:31:54.547Z,23.23
2019-06-15T03:34:23.280Z,24.47
2019-06-15T03:36:51.991Z,23.90
2019-06-15T03:39:20.692Z,24.17
2019-06-15T03:41:52.573Z,25.23
2019-06-15T03:44:40.303Z,25.43
2019-06-15T03:47:09.116Z,23.53
2019-06-15T03:49:40.884Z,25.27
2019-06-15T03:52:09.699Z,23.77
2019-06-15T03:54:38.965Z,25.47
2019-06-15T03:57:07.775Z,23.23
2019-06-15T03:59:36.485Z,24.90
2019-06-15T04:02:07.028Z,25.03
2019-06-15T04:04:36.080Z,25.77
2019-06-15T04:07:04.933Z,25.30
2019-06-15T04:09:33.704Z,24.03
2019-06-15T04:12:02.450Z,23.13
2019-06-15T04:14:31.213Z,25.30
2019-06-15T04:17:00.166Z,26.17
2019-06-15T04:19:28.905Z,24.37
2019-06-15T04:21:57.525Z,23.07
2019-06-15T04:24:26.251Z,25.20
2019-06-15T04:26:55.318Z,23.93
2019-06-15T04:29:27.029Z,23.50
2019-06-15T04:31:57.349Z,23.97
2019-06-15T04:34:26.173Z,23.97
2019-06-15T04:36:57.928Z,23.43
2019-06-15T04:39:27.722Z,25.40
2019-06-15T04:41:56.501Z,22.57
2019-06-15T04:44:27.092Z,24.37
2019-06-15T04:46:55.815Z,21.20
2019-06-15T04:49:24.524Z,22.60
2019-06-15T04:51:54.362Z,21.67
2019-06-15T04:54:23.111Z,26.40
2019-06-15T04:56:51.751Z,20.70
2019-06-15T04:59:20.367Z,21.37
2019-06-15T05:01:49.304Z,21.30
2019-06-15T05:04:18.043Z,20.80
2019-06-15T05:06:46.708Z,18.77
2019-06-15T05:09:18.769Z,17.83
2019-06-15T05:11:47.498Z,20.57
2019-06-15T05:14:16.228Z,21.20
2019-06-15T05:16:44.888Z,17.77
2019-06-15T05:19:13.789Z,20.90
2019-06-15T05:21:42.568Z,19.93
2019-06-15T05:24:11.219Z,20.67
2019-06-15T05:26:39.920Z,19.83
2019-06-15T05:29:08.571Z,19.47
2019-06-15T05:31:37.314Z,17.93
2019-06-15T05:34:06.190Z,24.53
2019-06-15T05:36:34.898Z,22.67
2019-06-15T05:39:05.943Z,24.17
2019-06-15T05:41:34.703Z,21.60
2019-06-15T05:44:03.438Z,21.53
2019-06-15T05:46:32.099Z,24.20
2019-06-15T05:49:00.845Z,19.37
2019-06-15T05:51:29.507Z,21.03
2019-06-15T05:53:58.232Z,24.43
2019-06-15T05:56:27.385Z,26.03
2019-06-15T05:58:56.011Z,22.40
2019-06-15T06:01:28.231Z,23.10
2019-06-15T06:03:57.028Z,23.83
2019-06-15T06:06:25.836Z,21.30
2019-06-15T06:08:54.971Z,28.07
2019-06-15T06:11:24.894Z,20.03
2019-06-15T06:13:53.610Z,21.43
2019-06-15T06:16:22.286Z,21.77
2019-06-15T06:18:50.958Z,21.93
2019-06-15T06:21:20.487Z,20.73
2019-06-15T06:23:49.862Z,22.00
2019-06-15T06:26:18.599Z,26.97
2019-06-15T06:28:56.929Z,20.00
2019-06-15T06:31:18.234Z,21.80
2019-06-15T06:33:46.900Z,21.60
2019-06-15T06:36:19.863Z,21.77
2019-06-15T06:38:48.549Z,23.57
2019-06-15T06:41:17.246Z,21.53
2019-06-15T06:43:45.946Z,17.93
2019-06-15T06:46:14.730Z,20.70
2019-06-15T06:48:43.572Z,20.90
2019-06-15T06:51:12.357Z,21.20
2019-06-15T06:53:41.070Z,20.00
2019-06-15T06:56:09.833Z,23.23
2019-06-15T06:58:38.496Z,19.63
2019-06-15T07:01:07.256Z,18.13
2019-06-15T07:03:35.970Z,21.40
2019-06-15T07:06:04.905Z,18.47
2019-06-15T07:08:33.619Z,19.70
2019-06-15T07:11:02.483Z,18.97
2019-06-15T07:13:31.192Z,21.13
2019-06-15T07:15:59.966Z,16.70
2019-06-15T07:18:29.378Z,22.00
2019-06-15T07:20:58.088Z,18.70
2019-06-15T07:23:26.740Z,19.13
2019-06-15T07:25:55.581Z,18.57
2019-06-15T07:28:24.386Z,23.33
2019-06-15T07:30:53.252Z,19.70
2019-06-15T07:33:21.937Z,23.57
2019-06-15T07:35:50.633Z,18.00
2019-06-15T07:38:19.251Z,17.67
2019-06-15T07:40:47.877Z,17.93
2019-06-15T07:43:16.542Z,15.73
2019-06-15T07:45:45.407Z,17.40
2019-06-15T07:48:14.275Z,21.20
2019-06-15T07:50:43.048Z,23.03
2019-06-15T07:53:11.785Z,24.47
2019-06-15T07:55:40.593Z,20.00
2019-06-15T07:58:23.608Z,21.50
2019-06-15T08:00:41.017Z,18.23
2019-06-15T08:03:09.821Z,19.37
2019-06-15T08:05:38.675Z,17.97
2019-06-15T08:08:07.641Z,18.50
2019-06-15T08:10:36.434Z,20.93
2019-06-15T08:13:05.119Z,21.10
2019-06-15T08:15:33.912Z,17.67
2019-06-15T08:18:02.653Z,27.80
2019-06-15T08:20:33.239Z,23.40
2019-06-15T08:23:02.064Z,26.00
2019-06-15T08:25:30.827Z,34.83
2019-06-15T08:27:59.535Z,23.70
2019-06-15T08:30:32.129Z,20.80
2019-06-15T08:33:03.685Z,12.27
2019-06-15T08:35:35.104Z,13.93
2019-06-15T08:38:04.153Z,16.47
2019-06-15T08:40:35.194Z,19.87
2019-06-15T08:43:05.023Z,24.90
2019-06-15T08:45:33.894Z,16.37
2019-06-15T08:48:02.711Z,19.57
2019-06-15T08:50:51.144Z,19.00
2019-06-15T08:53:19.966Z,20.73
2019-06-15T08:55:49.786Z,13.70
2019-06-15T08:58:18.482Z,16.47
2019-06-15T09:00:47.826Z,19.30
2019-06-15T09:03:16.471Z,13.47
2019-06-15T09:05:45.210Z,17.07
2019-06-15T09:08:13.907Z,18.27
2019-06-15T09:10:42.637Z,15.77
2019-06-15T09:13:11.436Z,19.97
2019-06-15T09:15:45.368Z,16.03
2019-06-15T09:18:13.972Z,19.30
2019-06-15T09:20:44.357Z,17.30
2019-06-15T09:23:15.399Z,18.17
2019-06-15T09:25:46.029Z,16.17
2019-06-15T09:28:16.457Z,13.43
2019-06-15T09:30:47.312Z,16.70
2019-06-15T09:33:17.304Z,14.93
2019-06-15T09:35:47.761Z,13.47
2019-06-15T09:38:17.641Z,14.63
2019-06-15T09:40:47.762Z,16.20
2019-06-15T09:43:17.373Z,17.23
2019-06-15T09:45:47.144Z,15.67
2019-06-15T09:48:18.475Z,11.27
2019-06-15T09:50:48.244Z,14.07
2019-06-15T09:53:18.153Z,13.83
2019-06-15T09:55:48.281Z,12.87
2019-06-15T09:58:18.100Z,14.03
2019-06-15T10:00:48.130Z,14.60
2019-06-15T10:03:20.679Z,14.60
2019-06-15T10:05:59.159Z,23.03
2019-06-15T10:08:29.928Z,16.87
2019-06-15T10:11:00.146Z,14.63
2019-06-15T10:13:31.541Z,17.47
2019-06-15T10:16:01.851Z,15.27
2019-06-15T10:18:31.745Z,18.90
2019-06-15T10:21:01.752Z,14.47
2019-06-15T10:23:32.167Z,13.87
2019-06-15T10:26:01.883Z,13.63
2019-06-15T10:28:32.114Z,17.40
2019-06-15T10:31:02.020Z,14.10
2019-06-15T10:33:31.731Z,14.30
2019-06-15T10:36:02.065Z,10.43
2019-06-15T10:38:32.070Z,16.87
2019-06-15T10:41:03.558Z,14.07
2019-06-15T10:43:34.047Z,9.80
2019-06-15T10:46:04.530Z,8.77
2019-06-15T10:48:34.705Z,13.90
2019-06-15T10:51:04.815Z,13.10
2019-06-15T10:53:34.731Z,14.27
2019-06-15T10:56:04.759Z,13.13
2019-06-15T10:58:35.280Z,13.27
2019-06-15T11:01:05.702Z,11.87
2019-06-15T11:03:35.641Z,10.13
2019-06-15T11:06:05.735Z,11.27
2019-06-15T11:08:35.753Z,13.60
2019-06-15T11:11:15.702Z,13.13
2019-06-15T11:13:45.714Z,9.80
2019-06-15T11:16:15.834Z,12.30
2019-06-15T11:18:45.655Z,15.50
2019-06-15T11:21:15.460Z,14.57
2019-06-15T11:23:45.376Z,12.40
2019-06-15T11:26:15.818Z,10.33
2019-06-15T11:28:45.714Z,11.33
2019-06-15T11:31:16.607Z,12.50
2019-06-15T11:33:46.770Z,12.40
2019-06-15T11:36:16.890Z,11.93
2019-06-15T11:38:46.826Z,10.00
2019-06-15T11:41:17.137Z,12.40
2019-06-15T11:43:46.838Z,11.33
2019-06-15T11:46:16.957Z,13.70
2019-06-15T11:48:46.886Z,15.87
2019-06-15T11:51:17.294Z,10.67
2019-06-15T11:53:50.498Z,9.80
2019-06-15T11:56:20.819Z,14.07
2019-06-15T11:58:51.030Z,10.73
2019-06-15T12:01:21.686Z,11.80
2019-06-15T12:03:51.784Z,12.30
2019-06-15T12:06:21.695Z,16.47
2019-06-15T12:08:52.432Z,10.23
2019-06-15T12:11:22.347Z,12.13
2019-06-15T12:13:52.467Z,12.73
2019-06-15T12:16:22.692Z,11.50
2019-06-15T12:18:52.701Z,11.50
2019-06-15T12:21:23.038Z,11.53
2019-06-15T12:23:53.887Z,24.53
2019-06-15T12:26:24.408Z,12.80
2019-06-15T12:28:55.236Z,12.37
2019-06-15T12:31:25.760Z,10.27
2019-06-15T12:33:55.768Z,7.20
2019-06-15T12:36:25.684Z,11.60
2019-06-15T12:38:55.495Z,10.50
2019-06-15T12:41:25.934Z,9.23
2019-06-15T12:43:55.840Z,10.07
2019-06-15T12:46:25.753Z,10.37
2019-06-15T12:48:55.147Z,9.50
2019-06-15T12:51:25.067Z,11.63
2019-06-15T12:53:55.126Z,11.33
2019-06-15T12:56:25.408Z,9.93
2019-06-15T12:58:54.811Z,15.67
2019-06-15T13:01:27.292Z,13.70
2019-06-15T13:03:57.526Z,13.40
2019-06-15T13:06:27.730Z,9.07
2019-06-15T13:08:57.449Z,14.20
2019-06-15T13:11:26.946Z,10.27
2019-06-15T13:13:57.060Z,11.90
2019-06-15T13:16:38.610Z,9.63
2019-06-15T13:18:58.451Z,9.97
2019-06-15T13:21:28.762Z,7.27
2019-06-15T13:23:58.134Z,13.77
2019-06-15T13:26:27.986Z,9.23
2019-06-15T13:28:57.994Z,9.87
2019-06-15T13:31:27.891Z,7.83
2019-06-15T13:33:57.512Z,9.57
2019-06-15T13:36:27.217Z,8.67
2019-06-15T13:38:57.210Z,8.10
2019-06-15T13:41:27.794Z,11.87
2019-06-15T13:43:57.143Z,8.13
2019-06-15T13:46:27.074Z,9.33
2019-06-15T13:48:57.313Z,8.57
2019-06-15T13:51:27.426Z,13.43
2019-06-15T13:53:57.580Z,9.40
2019-06-15T13:56:27.443Z,7.27
2019-06-15T13:58:57.464Z,9.03
2019-06-15T14:01:34.200Z,9.77
2019-06-15T14:03:58.753Z,8.97
2019-06-15T14:06:28.888Z,10.33
2019-06-15T14:08:59.130Z,10.77
2019-06-15T14:11:28.977Z,11.40
2019-06-15T14:13:59.427Z,8.27
2019-06-15T14:16:30.441Z,8.67
2019-06-15T14:19:00.769Z,9.60
2019-06-15T14:21:30.479Z,9.80
2019-06-15T14:24:00.922Z,8.40
2019-06-15T14:26:30.919Z,10.97
2019-06-15T14:29:00.729Z,8.60
2019-06-15T14:31:30.759Z,10.10
2019-06-15T14:34:00.876Z,8.00
2019-06-15T14:36:30.771Z,6.53
2019-06-15T14:39:00.738Z,7.60
2019-06-15T14:41:31.122Z,6.63
2019-06-15T14:44:01.038Z,11.27
2019-06-15T14:46:31.153Z,12.33
2019-06-15T14:49:01.480Z,9.83
2019-06-15T14:51:31.487Z,11.70
2019-06-15T14:54:01.513Z,8.57
2019-06-15T14:56:31.740Z,11.47
2019-06-15T14:59:02.052Z,10.03
2019-06-15T15:01:34.767Z,13.80
2019-06-15T15:04:03.321Z,13.87
2019-06-15T15:06:33.131Z,12.10
2019-06-15T15:09:03.251Z,12.03
2019-06-15T15:11:33.474Z,9.30
2019-06-15T15:14:03.488Z,10.50
2019-06-15T15:16:33.302Z,8.10
2019-06-15T15:19:06.119Z,9.73
2019-06-15T15:21:38.144Z,11.27
2019-06-15T15:24:09.287Z,9.20
2019-06-15T15:26:39.930Z,11.47
2019-06-15T15:29:09.845Z,11.77
2019-06-15T15:31:40.709Z,9.00
2019-06-15T15:34:11.507Z,9.70
2019-06-15T15:36:41.521Z,14.40
2019-06-15T15:39:11.648Z,12.20
2019-06-15T15:41:41.348Z,13.70
2019-06-15T15:44:11.162Z,16.77
2019-06-15T15:46:41.886Z,11.30
2019-06-15T15:49:11.709Z,8.63
2019-06-15T15:51:42.033Z,10.90
2019-06-15T15:54:12.144Z,7.90
2019-06-15T15:56:42.063Z,11.07
2019-06-15T15:59:12.796Z,10.37
2019-06-15T16:01:45.975Z,12.67
2019-06-15T16:04:17.047Z,10.57
2019-06-15T16:06:47.262Z,7.60
2019-06-15T16:09:17.461Z,8.87
2019-06-15T16:11:47.478Z,10.90
2019-06-15T16:14:17.814Z,8.90
2019-06-15T16:16:47.941Z,15.97
2019-06-15T16:19:17.947Z,11.90
2019-06-15T16:21:48.376Z,12.60
2019-06-15T16:24:18.806Z,10.77
2019-06-15T16:26:49.127Z,11.17
2019-06-15T16:29:20.884Z,8.67
2019-06-15T16:31:50.795Z,10.50
2019-06-15T16:34:23.908Z,10.60
2019-06-15T16:36:56.893Z,11.07
2019-06-15T16:39:27.062Z,9.30
2019-06-15T16:42:01.426Z,16.73
2019-06-15T16:50:28.181Z,21.53
2019-06-15T16:52:59.872Z,18.03
2019-06-15T16:55:30.267Z,25.37
2019-06-15T16:58:00.396Z,24.97
2019-06-15T17:00:32.802Z,17.47
2019-06-15T17:03:17.455Z,11.80
2019-06-15T17:05:36.222Z,25.77
2019-06-15T17:08:06.956Z,18.17
2019-06-15T17:10:39.481Z,17.30
2019-06-15T17:13:09.828Z,18.63
2019-06-15T17:15:39.939Z,16.77
2019-06-15T17:18:11.476Z,59.00
2019-06-15T18:33:16.338Z,9.27
2019-06-15T18:56:56.660Z,13.20
2019-06-15T18:59:28.532Z,12.10
2019-06-15T19:01:59.146Z,15.27
2019-06-15T19:04:35.427Z,14.40
2019-06-15T19:07:06.624Z,19.33
2019-06-15T19:09:37.717Z,15.23
2019-06-15T19:12:09.568Z,13.83
2019-06-15T19:14:39.815Z,13.63
2019-06-15T19:22:49.675Z,17.93
2019-06-15T20:17:29.764Z,14.13
2019-06-15T20:20:00.297Z,13.43
2019-06-15T20:22:31.129Z,12.10
2019-06-15T20:25:03.500Z,15.67
2019-06-15T20:27:37.478Z,15.33
2019-06-15T20:30:07.442Z,11.67
2019-06-15T20:32:41.848Z,11.73
2019-06-15T20:35:20.956Z,11.10
2019-06-15T20:37:48.120Z,9.17
2019-06-15T20:40:23.155Z,11.47
2019-06-15T20:42:57.012Z,8.80
2019-06-15T21:02:43.273Z,17.57
2019-06-15T21:05:32.378Z,11.40
2019-06-15T21:07:46.774Z,10.73
2019-06-15T21:10:17.521Z,11.73
2019-06-15T21:12:47.640Z,12.77
2019-06-15T21:15:18.266Z,9.10
2019-06-15T21:17:48.899Z,13.83
2019-06-15T21:20:19.122Z,10.87
2019-06-15T21:22:49.153Z,11.63
2019-06-15T21:25:19.260Z,9.73
2019-06-15T21:27:49.684Z,13.20
2019-06-15T21:30:19.700Z,17.37
2019-06-15T21:32:49.511Z,10.43
2019-06-15T21:35:48.950Z,14.10
2019-06-15T21:38:10.125Z,15.77
2019-06-15T21:40:40.140Z,11.90
2019-06-15T21:43:10.153Z,8.90
2019-06-15T21:45:41.520Z,11.30
2019-06-15T21:48:11.737Z,13.50
2019-06-15T21:50:41.746Z,10.07
2019-06-15T21:53:11.469Z,11.33
2019-06-15T21:55:41.473Z,16.97
2019-06-15T21:58:11.174Z,13.90
2019-06-15T22:00:50.719Z,10.83
2019-06-15T22:03:20.839Z,9.43
2019-06-15T22:06:02.707Z,11.40
2019-06-15T22:08:22.513Z,12.17
2019-06-15T22:10:52.545Z,9.23
2019-06-15T22:13:22.339Z,13.13
2019-06-15T22:15:52.867Z,16.00
2019-06-15T22:18:23.501Z,11.77
2019-06-15T22:20:53.524Z,9.70
2019-06-15T22:23:23.847Z,14.27
2019-06-15T22:25:53.651Z,18.07
2019-06-15T22:28:23.572Z,13.50
2019-06-15T22:30:53.788Z,12.67
2019-06-15T22:33:23.829Z,18.03
2019-06-15T22:35:56.313Z,10.27
2019-06-15T22:38:27.961Z,11.90
2019-06-15T22:40:57.745Z,17.83
2019-06-15T22:43:27.970Z,13.93
2019-06-15T22:45:58.153Z,14.63
2019-06-15T22:48:28.107Z,10.93
2019-06-15T22:50:58.431Z,9.43
2019-06-15T22:53:28.566Z,17.23
2019-06-15T22:55:58.462Z,15.93
2019-06-15T22:58:28.787Z,17.37
2019-06-15T23:00:58.798Z,10.43
2019-06-15T23:03:28.507Z,14.67
2019-06-15T23:05:58.522Z,16.57
2019-06-15T23:08:28.652Z,17.77
2019-06-15T23:10:58.888Z,17.07
2019-06-15T23:13:28.784Z,13.27
2019-06-15T23:15:59.107Z,12.60
2019-06-15T23:18:29.142Z,12.83
2019-06-15T23:20:58.833Z,18.27
2019-06-15T23:23:28.742Z,15.20
2019-06-15T23:25:59.156Z,20.60
2019-06-15T23:28:29.826Z,12.37
2019-06-15T23:30:59.926Z,14.87
2019-06-15T23:33:30.868Z,13.20
2019-06-15T23:36:06.394Z,12.70
2019-06-15T23:38:37.747Z,14.87
2019-06-15T23:41:09.717Z,19.83
2019-06-15T23:43:40.143Z,15.23
2019-06-15T23:46:11.498Z,13.10
2019-06-15T23:48:42.736Z,10.13
2019-06-15T23:51:13.468Z,12.00
2019-06-15T23:53:46.236Z,10.50
2019-06-15T23:56:17.697Z,9.80
2019-06-15T23:58:48.438Z,14.37
